CMI weather

University of Illinois Willard Airport
Champaign/Urbana, Illinois, United States

Public forecast

Using degrees Fahrenheit for public forecast. Weather courtesy of forecast.io.

Current aviation weather report (METAR) for University of Illinois Willard Airport

Retrieved 2020/05/29 10:53 UTC (33 minutes ago):

KCMI 291053Z AUTO 33004KT 10SM SCT044 BKN050 OVC100 17/15 A2995 RMK AO2 SLP136 T01670150

Aviation forecast (TAF) for University of Illinois Willard Airport

Retrieved 2020/05/29 06:22 UTC (5 hours ago):

TAF KCMI 290520Z 2906/3006 27007KT P6SM SCT030 OVC060 FM290800 30008KT P6SM SCT007 BKN018 FM291300 32013G20KT P6SM FEW040 SCT250 FM300200 33006KT P6SM FEW250